Time;durP1;ratioP1;P1;durP2;ratioP2;P2;SDS_P1;SDS_P2;PMS_P1;PMS_P2;Temp;Humidity;BMP_temperature;BMP_pressure;BME280_temperature;BME280_humidity;BME280_pressure;Samples;Min_cycle;Max_cycle;Signal;HPM_P1;HPM_P2
2023/07/14 00:01:30;;;;;;;7.40;4.95;;;19.10;95.30;;;;;;5062189;28;20033;-85
2023/07/14 00:03:56;;;;;;;7.03;4.97;;;19.10;95.30;;;;;;5060483;28;20047;-86
2023/07/14 00:06:22;;;;;;;6.55;4.90;;;19.10;95.30;;;;;;5039093;28;20524;-84
2023/07/14 00:08:49;;;;;;;5.15;4.63;;;19.10;95.40;;;;;;5037704;28;20063;-85
2023/07/14 00:11:17;;;;;;;6.57;4.75;;;19.10;95.40;;;;;;5055288;28;20032;-86
2023/07/14 00:13:44;;;;;;;5.63;4.65;;;19.10;95.40;;;;;;5037295;28;20025;-86
2023/07/14 00:16:14;;;;;;;5.93;4.90;;;19.20;95.40;;;;;;5037296;28;20456;-86
2023/07/14 00:18:40;;;;;;;4.72;4.25;;;19.20;95.40;;;;;;5055010;28;20021;-86
2023/07/14 00:21:13;;;;;;;5.05;4.32;;;19.20;95.40;;;;;;5036782;28;20048;-86
2023/07/14 00:23:38;;;;;;;8.35;4.28;;;19.30;95.30;;;;;;5036429;28;20472;-86
2023/07/14 00:26:10;;;;;;;5.20;3.80;;;19.30;95.30;;;;;;5054484;28;20029;-86
2023/07/14 00:28:37;;;;;;;6.20;3.72;;;19.30;95.40;;;;;;5053956;28;20029;-85
2023/07/14 00:31:04;;;;;;;5.55;3.47;;;19.30;95.40;;;;;;5034992;28;20469;-86
2023/07/14 00:33:30;;;;;;;5.50;3.85;;;19.30;95.40;;;;;;5036492;28;20017;-85
2023/07/14 00:35:55;;;;;;;5.95;4.00;;;19.30;95.30;;;;;;5036379;28;20362;-85
2023/07/14 00:38:21;;;;;;;5.22;4.03;;;19.30;95.40;;;;;;5020033;28;20033;-85
2023/07/14 00:40:48;;;;;;;5.65;3.85;;;19.30;95.30;;;;;;5036808;28;20079;-85
2023/07/14 00:43:24;;;;;;;5.47;3.92;;;19.30;95.30;;;;;;5036971;28;20043;-86
2023/07/14 00:45:52;;;;;;;7.00;3.88;;;19.30;95.40;;;;;;5036400;28;20464;-86
2023/07/14 00:48:24;;;;;;;4.38;3.75;;;19.20;95.40;;;;;;5020368;28;20045;-85
2023/07/14 00:51:00;;;;;;;7.43;4.28;;;19.20;95.40;;;;;;5054142;28;20021;-85
2023/07/14 00:53:38;;;;;;;5.97;4.30;;;19.20;95.50;;;;;;5054040;28;20021;-85
2023/07/14 00:56:10;;;;;;;4.47;3.90;;;19.20;95.50;;;;;;5036891;28;20131;-85
2023/07/14 00:58:37;;;;;;;5.18;3.45;;;19.20;95.40;;;;;;5054086;28;20083;-86
2023/07/14 01:01:03;;;;;;;4.80;3.60;;;19.10;95.30;;;;;;5019773;28;20033;-85
2023/07/14 01:03:32;;;;;;;4.00;3.30;;;19.10;95.30;;;;;;5036323;28;20082;-84
2023/07/14 01:06:02;;;;;;;7.53;3.63;;;19.10;95.40;;;;;;5036048;28;20074;-85
2023/07/14 01:08:28;;;;;;;5.53;3.67;;;19.10;95.40;;;;;;5036140;28;20365;-85
2023/07/14 01:10:55;;;;;;;5.88;3.42;;;19.00;95.40;;;;;;5035742;28;20029;-86
2023/07/14 01:13:23;;;;;;;5.22;3.40;;;18.90;95.40;;;;;;5036672;28;20036;-85
2023/07/14 01:15:50;;;;;;;5.07;3.63;;;18.90;95.40;;;;;;5036021;28;20028;-86
2023/07/14 01:18:19;;;;;;;4.32;3.47;;;18.90;95.50;;;;;;5036139;28;20017;-86
2023/07/14 01:20:45;;;;;;;4.57;3.50;;;18.90;95.50;;;;;;5019887;28;20115;-85
2023/07/14 01:23:17;;;;;;;5.32;3.58;;;18.80;95.60;;;;;;5019793;28;20468;-85
2023/07/14 01:25:46;;;;;;;4.68;3.55;;;18.80;95.60;;;;;;5053656;28;20113;-85
2023/07/14 01:28:14;;;;;;;5.55;3.80;;;18.80;95.60;;;;;;5036022;28;20530;-86
2023/07/14 01:30:41;;;;;;;5.28;3.65;;;18.70;95.60;;;;;;5054210;28;20041;-85
2023/07/14 01:33:17;;;;;;;5.15;3.88;;;18.70;95.70;;;;;;5021291;28;20047;-85
2023/07/14 01:35:48;;;;;;;4.95;3.67;;;18.70;95.80;;;;;;5056136;28;20021;-85
2023/07/14 01:38:14;;;;;;;6.28;3.60;;;18.70;95.90;;;;;;5039358;28;20024;-85
2023/07/14 01:40:40;;;;;;;4.90;3.80;;;18.70;95.90;;;;;;5038475;28;20021;-85
2023/07/14 01:43:06;;;;;;;5.18;3.88;;;18.70;96.00;;;;;;5056986;28;20082;-85
2023/07/14 01:45:44;;;;;;;4.75;3.88;;;18.70;96.00;;;;;;5066121;28;20080;-85
2023/07/14 01:48:17;;;;;;;5.80;3.78;;;18.70;96.00;;;;;;5060059;28;20040;-85
2023/07/14 01:50:48;;;;;;;6.07;3.83;;;18.70;96.00;;;;;;5077758;28;20016;-85
2023/07/14 01:53:22;;;;;;;;;;;18.60;96.00;;;;;;5071832;28;20036;-85
2023/07/14 01:55:49;;;;;;;7.32;4.07;;;18.60;96.00;;;;;;5044673;28;19930;-86
2023/07/14 01:58:29;;;;;;;5.78;3.80;;;18.60;96.10;;;;;;5052574;28;20487;-86
2023/07/14 02:00:58;;;;;;;9.50;4.68;;;18.60;96.10;;;;;;5045620;28;20017;-86
2023/07/14 02:03:36;;;;;;;5.97;4.07;;;18.70;96.10;;;;;;5044695;28;20093;-86
2023/07/14 02:06:05;;;;;;;5.88;4.18;;;18.60;96.10;;;;;;5055032;28;20083;-86
2023/07/14 02:08:31;;;;;;;4.88;4.10;;;18.60;96.10;;;;;;5035890;28;20035;-86
2023/07/14 02:10:57;;;;;;;4.72;4.05;;;18.60;96.10;;;;;;5035436;28;20299;-86
2023/07/14 02:13:23;;;;;;;5.53;3.72;;;18.60;96.10;;;;;;5053497;28;20021;-86
2023/07/14 02:15:52;;;;;;;4.55;3.78;;;18.50;96.10;;;;;;5035029;28;20037;-86
2023/07/14 02:18:23;;;;;;;5.38;4.45;;;18.50;96.10;;;;;;5019027;28;20128;-85
2023/07/14 02:20:49;;;;;;;5.07;3.80;;;18.50;96.10;;;;;;5053205;28;20067;-86
2023/07/14 02:23:20;;;;;;;5.57;3.95;;;18.40;96.10;;;;;;5053257;28;20021;-86
2023/07/14 02:25:50;;;;;;;5.65;3.88;;;18.40;96.10;;;;;;5035021;28;20021;-86
2023/07/14 02:28:15;;;;;;;5.43;3.92;;;18.50;96.20;;;;;;5035459;28;20036;-86
2023/07/14 02:30:49;;;;;;;4.85;3.72;;;18.40;96.40;;;;;;5018494;28;20045;-86
2023/07/14 02:33:30;;;;;;;5.90;3.63;;;18.30;96.20;;;;;;5053188;28;20013;-85
2023/07/14 02:36:15;;;;;;;5.72;3.83;;;18.30;96.20;;;;;;5033730;28;20469;-86
2023/07/14 02:38:40;;;;;;;6.18;3.95;;;18.30;96.30;;;;;;5034990;28;20130;-84
2023/07/14 02:41:17;;;;;;;6.15;3.88;;;18.30;96.30;;;;;;5035213;28;20037;-85
2023/07/14 02:43:47;;;;;;;7.45;4.53;;;18.20;96.30;;;;;;5035155;28;20024;-86
2023/07/14 02:46:20;;;;;;;5.57;3.90;;;18.20;96.30;;;;;;5035467;28;20227;-86
2023/07/14 02:48:49;;;;;;;3.88;3.47;;;18.20;96.40;;;;;;5038634;28;20021;-86
2023/07/14 02:51:15;;;;;;;6.00;3.95;;;18.20;96.40;;;;;;5038922;28;20029;-86
2023/07/14 02:53:41;;;;;;;6.20;3.53;;;18.20;96.40;;;;;;5038880;28;20055;-86
2023/07/14 02:56:07;;;;;;;4.53;3.88;;;18.20;96.50;;;;;;5038647;28;20391;-85
2023/07/14 02:58:33;;;;;;;5.57;3.70;;;18.20;96.50;;;;;;5038517;28;20021;-86
2023/07/14 03:01:00;;;;;;;6.55;3.13;;;18.20;96.50;;;;;;5038308;28;20035;-86
2023/07/14 03:03:27;;;;;;;4.03;2.90;;;18.20;96.50;;;;;;5038780;28;20379;-86
2023/07/14 03:05:54;;;;;;;4.80;3.45;;;18.20;96.50;;;;;;5022015;28;20086;-86
2023/07/14 03:08:20;;;;;;;4.88;3.53;;;18.20;96.50;;;;;;5038485;28;20448;-86
2023/07/14 03:10:49;;;;;;;5.07;3.67;;;18.20;96.50;;;;;;5038188;28;20029;-85
2023/07/14 03:13:16;;;;;;;3.97;3.10;;;18.30;96.50;;;;;;5056350;28;20021;-86
2023/07/14 03:15:43;;;;;;;3.75;3.20;;;18.30;96.50;;;;;;5056297;28;20017;-86
2023/07/14 03:18:10;;;;;;;3.83;3.13;;;18.30;96.50;;;;;;5038236;28;20029;-85
2023/07/14 03:20:37;;;;;;;4.75;3.55;;;18.30;96.50;;;;;;5038254;28;20024;-86
2023/07/14 03:23:03;;;;;;;3.83;3.33;;;18.30;96.50;;;;;;5038478;28;20041;-86
2023/07/14 03:25:28;;;;;;;6.97;4.32;;;18.30;96.40;;;;;;5038120;28;20048;-86
2023/07/14 03:27:54;;;;;;;5.20;4.18;;;18.30;96.40;;;;;;5021426;28;20033;-87
2023/07/14 03:30:20;;;;;;;5.90;4.22;;;18.40;96.40;;;;;;5055817;28;20087;-86
2023/07/14 03:32:45;;;;;;;6.20;4.45;;;18.40;96.30;;;;;;5038018;28;20056;-86
2023/07/14 03:35:11;;;;;;;5.22;4.13;;;18.30;96.30;;;;;;5022587;28;20032;-86
2023/07/14 03:37:38;;;;;;;6.22;4.78;;;18.40;96.40;;;;;;5030730;28;20043;-86
2023/07/14 03:40:05;;;;;;;7.15;5.07;;;18.40;96.40;;;;;;5046030;28;20013;-86
2023/07/14 03:42:31;;;;;;;6.93;5.22;;;18.30;96.30;;;;;;5046593;28;20005;-86
2023/07/14 03:44:56;;;;;;;5.30;4.43;;;18.40;96.40;;;;;;5045450;28;20037;-85
2023/07/14 03:47:22;;;;;;;7.68;4.55;;;18.40;96.40;;;;;;5060235;28;20047;-84
2023/07/14 03:49:48;;;;;;;6.22;5.15;;;18.40;96.40;;;;;;5024985;28;20535;-84
2023/07/14 03:52:13;;;;;;;6.43;4.97;;;18.30;96.40;;;;;;5038298;28;20032;-84
2023/07/14 03:54:39;;;;;;;5.70;4.80;;;18.40;96.40;;;;;;5038012;28;20419;-84
2023/07/14 03:57:05;;;;;;;6.15;4.72;;;18.40;96.40;;;;;;5020886;28;20021;-85
2023/07/14 03:59:31;;;;;;;5.53;4.40;;;18.40;96.30;;;;;;5038065;28;20472;-85
2023/07/14 04:01:57;;;;;;;6.05;5.15;;;18.30;96.30;;;;;;5021106;28;20017;-84
2023/07/14 04:04:22;;;;;;;5.80;5.15;;;18.30;96.40;;;;;;5055621;28;20508;-85
2023/07/14 04:06:49;;;;;;;6.90;5.28;;;18.30;96.40;;;;;;5037638;28;20099;-85
2023/07/14 04:09:15;;;;;;;5.10;4.28;;;18.30;96.30;;;;;;5055492;28;20024;-85
2023/07/14 04:11:41;;;;;;;5.85;4.40;;;18.40;96.30;;;;;;5037196;28;20021;-85
2023/07/14 04:14:07;;;;;;;5.78;4.68;;;18.30;96.30;;;;;;5054655;28;20025;-85
2023/07/14 04:16:35;;;;;;;7.60;4.70;;;18.30;96.30;;;;;;5037303;28;20041;-85
2023/07/14 04:19:02;;;;;;;5.43;4.72;;;18.30;96.40;;;;;;5037367;28;20085;-85
2023/07/14 04:21:27;;;;;;;5.55;4.57;;;18.30;96.40;;;;;;5055312;28;20033;-84
2023/07/14 04:23:54;;;;;;;5.03;4.45;;;18.30;96.40;;;;;;5054653;28;20414;-83
2023/07/14 04:26:22;;;;;;;6.85;4.80;;;18.30;96.50;;;;;;5054833;28;20017;-85
2023/07/14 04:28:48;;;;;;;5.28;4.78;;;18.30;96.50;;;;;;5020297;28;20032;-84
2023/07/14 04:34:00;;;;;;;5.68;4.45;;;18.30;96.60;;;;;;5036592;28;20115;-85
2023/07/14 04:36:26;;;;;;;5.47;4.20;;;18.30;96.60;;;;;;5021007;28;20107;-84
2023/07/14 04:39:05;;;;;;;5.53;4.57;;;18.30;96.60;;;;;;5038560;28;20057;-85
2023/07/14 04:41:31;;;;;;;6.75;4.88;;;18.30;96.60;;;;;;5037320;28;20094;-85
2023/07/14 04:43:56;;;;;;;6.72;4.90;;;18.30;96.60;;;;;;5038136;28;20460;-85
2023/07/14 04:46:22;;;;;;;5.55;4.97;;;18.40;96.70;;;;;;5023745;28;20045;-84
2023/07/14 04:48:48;;;;;;;5.45;4.32;;;18.40;96.70;;;;;;5039721;28;20380;-85
2023/07/14 04:51:14;;;;;;;6.35;5.35;;;18.40;96.80;;;;;;5039238;28;20021;-85
2023/07/14 04:53:39;;;;;;;6.43;4.50;;;18.40;96.80;;;;;;5037634;28;20408;-85
2023/07/14 04:56:05;;;;;;;5.72;4.75;;;18.50;96.80;;;;;;5036228;28;20116;-86
2023/07/14 04:58:31;;;;;;;6.85;4.82;;;18.40;96.80;;;;;;5036820;28;20029;-86
2023/07/14 05:00:56;;;;;;;5.72;4.45;;;18.50;96.80;;;;;;5036328;28;20021;-83
2023/07/14 05:03:23;;;;;;;5.47;4.82;;;18.50;96.80;;;;;;5036048;28;20063;-85
2023/07/14 05:05:49;;;;;;;7.18;4.63;;;18.50;96.80;;;;;;5019981;28;20036;-85
2023/07/14 05:08:14;;;;;;;8.55;4.95;;;18.60;96.80;;;;;;5036236;28;20037;-86
2023/07/14 05:10:40;;;;;;;6.97;4.50;;;18.60;96.80;;;;;;5019359;28;20028;-86
2023/07/14 05:13:06;;;;;;;6.57;4.65;;;18.60;96.80;;;;;;5036070;28;20052;-86
2023/07/14 05:15:32;;;;;;;6.70;4.75;;;18.60;96.80;;;;;;5036122;28;20032;-85
2023/07/14 05:18:00;;;;;;;6.30;4.40;;;18.60;96.70;;;;;;5035536;28;20025;-86
2023/07/14 05:20:29;;;;;;;6.00;4.20;;;18.70;96.70;;;;;;5035955;28;20083;-86
2023/07/14 05:22:57;;;;;;;6.30;4.47;;;18.70;96.70;;;;;;5020213;28;20048;-86
2023/07/14 05:25:23;;;;;;;5.28;3.90;;;18.80;96.70;;;;;;5054897;28;20147;-86
2023/07/14 05:27:49;;;;;;;6.20;4.25;;;18.80;96.60;;;;;;5036769;28;20540;-86
2023/07/14 05:30:18;;;;;;;6.38;4.88;;;18.80;96.60;;;;;;5033760;28;20045;-85
2023/07/14 05:32:44;;;;;;;6.30;4.78;;;18.90;96.70;;;;;;5058550;28;20083;-85
2023/07/14 05:35:11;;;;;;;6.93;5.03;;;18.90;96.70;;;;;;5060454;28;20017;-86
2023/07/14 05:37:37;;;;;;;5.25;4.65;;;18.90;96.70;;;;;;5060068;28;20012;-86
2023/07/14 05:40:10;;;;;;;6.70;5.20;;;18.90;96.60;;;;;;5059989;28;20013;-86
2023/07/14 05:42:36;;;;;;;6.13;5.10;;;19.00;96.60;;;;;;5029476;28;20428;-86
2023/07/14 05:45:03;;;;;;;6.18;4.63;;;19.00;96.60;;;;;;5036174;28;20032;-85
2023/07/14 05:47:29;;;;;;;6.20;5.07;;;19.10;96.60;;;;;;5035653;28;20036;-86
2023/07/14 05:49:57;;;;;;;7.25;5.72;;;19.00;96.60;;;;;;5019105;28;20540;-86
2023/07/14 05:52:23;;;;;;;6.78;4.88;;;19.10;96.50;;;;;;5019118;28;20052;-87
2023/07/14 05:54:49;;;;;;;7.20;5.40;;;19.10;96.50;;;;;;5019454;28;20490;-86
2023/07/14 05:57:15;;;;;;;7.47;5.20;;;19.20;96.50;;;;;;5035190;28;20461;-86
2023/07/14 05:59:41;;;;;;;6.35;5.55;;;19.20;96.50;;;;;;5035369;28;20113;-87
2023/07/14 06:02:11;;;;;;;8.68;5.07;;;19.20;96.40;;;;;;5035340;28;20053;-87
2023/07/14 06:04:37;;;;;;;6.20;4.72;;;19.30;96.40;;;;;;5053350;28;20498;-87
2023/07/14 06:07:06;;;;;;;5.32;4.50;;;19.30;96.40;;;;;;5035444;28;20115;-87
2023/07/14 06:09:36;;;;;;;8.25;4.85;;;19.40;96.30;;;;;;5019135;28;20021;-87
2023/07/14 06:12:04;;;;;;;5.23;4.20;;;19.50;96.20;;;;;;5053116;28;20036;-87
2023/07/14 06:14:34;;;;;;;6.13;3.70;;;19.50;96.10;;;;;;5035709;28;20290;-87
2023/07/14 06:17:01;;;;;;;5.57;4.20;;;19.50;96.00;;;;;;5036377;28;20086;-87
2023/07/14 06:19:30;;;;;;;5.15;4.13;;;19.60;95.90;;;;;;5035694;28;20548;-87
2023/07/14 06:21:56;;;;;;;5.00;3.50;;;19.60;95.80;;;;;;5021318;28;20198;-87
2023/07/14 06:24:23;;;;;;;5.63;3.50;;;19.60;95.70;;;;;;5039195;28;20021;-87
2023/07/14 06:26:48;;;;;;;9.18;4.35;;;19.60;95.60;;;;;;5039264;28;20044;-87
2023/07/14 06:29:15;;;;;;;7.57;3.55;;;19.60;95.50;;;;;;5023206;28;20025;-87
2023/07/14 06:31:40;;;;;;;6.15;3.22;;;19.70;95.30;;;;;;5057971;28;20025;-87
2023/07/14 06:34:14;;;;;;;5.60;3.50;;;19.70;95.30;;;;;;5060347;28;20100;-87
2023/07/14 06:36:39;;;;;;;4.35;3.42;;;19.70;95.30;;;;;;5026827;28;20029;-87
2023/07/14 06:39:07;;;;;;;5.72;3.40;;;19.80;95.20;;;;;;5059648;28;20040;-87
2023/07/14 06:41:32;;;;;;;5.38;3.33;;;19.80;95.10;;;;;;5059856;28;20021;-88
2023/07/14 06:44:02;;;;;;;5.63;3.30;;;19.90;95.00;;;;;;5040882;28;20029;-87
2023/07/14 06:46:30;;;;;;;5.43;3.37;;;19.90;94.90;;;;;;5024616;28;20262;-87
2023/07/14 06:48:57;;;;;;;4.47;3.33;;;20.00;94.90;;;;;;5024092;28;20354;-88
2023/07/14 06:51:24;;;;;;;4.10;3.00;;;20.00;94.80;;;;;;5040778;28;20025;-87
2023/07/14 06:53:50;;;;;;;4.10;3.15;;;20.00;94.80;;;;;;5022372;28;20067;-87
2023/07/14 06:56:16;;;;;;;5.78;3.08;;;20.10;94.70;;;;;;5038958;28;20040;-88
2023/07/14 06:58:42;;;;;;;4.55;3.22;;;20.10;94.70;;;;;;5023165;28;20470;-88
2023/07/14 07:01:07;;;;;;;5.55;3.40;;;20.20;94.70;;;;;;5038403;28;20112;-88
2023/07/14 07:03:34;;;;;;;5.63;3.33;;;20.20;94.70;;;;;;5039161;28;20029;-88
2023/07/14 07:06:00;;;;;;;4.75;3.25;;;20.30;94.70;;;;;;5039004;28;20036;-88
2023/07/14 07:08:26;;;;;;;5.85;4.25;;;20.40;94.50;;;;;;5038501;28;20037;-88
2023/07/14 07:10:52;;;;;;;4.55;3.63;;;20.40;94.30;;;;;;5056615;28;20021;-88
2023/07/14 07:13:18;;;;;;;5.95;3.35;;;20.40;94.20;;;;;;5038696;28;20029;-87
2023/07/14 07:15:46;;;;;;;4.97;3.65;;;20.40;94.10;;;;;;5038484;28;20052;-87
2023/07/14 07:18:12;;;;;;;4.35;3.50;;;20.50;94.20;;;;;;5058935;28;20028;-86
2023/07/14 07:20:42;;;;;;;4.82;3.42;;;20.50;94.10;;;;;;5043791;28;20029;-87
2023/07/14 07:23:08;;;;;;;5.25;3.67;;;20.50;94.00;;;;;;5057258;28;20013;-87
2023/07/14 07:25:36;;;;;;;4.30;3.25;;;20.70;93.90;;;;;;5062781;28;20013;-85
2023/07/14 07:28:03;;;;;;;4.88;3.40;;;20.60;93.80;;;;;;5046817;28;20112;-86
2023/07/14 07:30:31;;;;;;;3.85;2.95;;;20.70;93.80;;;;;;5079712;28;20057;-86
2023/07/14 07:32:57;;;;;;;4.63;3.70;;;20.70;93.80;;;;;;5062518;28;20028;-87
2023/07/14 07:35:23;;;;;;;4.88;3.55;;;20.80;93.70;;;;;;5060650;28;20025;-87
2023/07/14 07:37:48;;;;;;;3.83;2.53;;;20.80;93.60;;;;;;5023822;28;20135;-87
2023/07/14 07:40:15;;;;;;;2.92;2.28;;;20.90;93.50;;;;;;5022052;28;20032;-86
2023/07/14 07:42:41;;;;;;;3.53;2.10;;;20.90;93.30;;;;;;5021557;28;20048;-87
2023/07/14 07:45:08;;;;;;;3.47;2.65;;;20.90;93.10;;;;;;5056246;28;20035;-87
2023/07/14 07:47:34;;;;;;;3.75;2.10;;;21.00;93.10;;;;;;5055652;28;20033;-87
2023/07/14 07:49:59;;;;;;;3.15;2.03;;;21.00;92.90;;;;;;5021587;28;20033;-87
2023/07/14 07:52:27;;;;;;;3.13;2.17;;;21.10;92.70;;;;;;5038585;28;20075;-86
2023/07/14 07:54:53;;;;;;;3.13;2.10;;;21.10;92.60;;;;;;5040298;28;20361;-86
2023/07/14 07:57:19;;;;;;;3.30;2.00;;;21.20;92.60;;;;;;5023359;28;20037;-87
2023/07/14 07:59:45;;;;;;;3.05;1.80;;;21.30;92.50;;;;;;5040508;28;20032;-86
2023/07/14 08:02:13;;;;;;;3.53;1.83;;;21.40;92.30;;;;;;5038560;28;20119;-87
2023/07/14 08:04:39;;;;;;;2.40;2.00;;;21.40;92.00;;;;;;5021034;28;20032;-86
2023/07/14 08:07:12;;;;;;;3.90;2.03;;;21.40;92.00;;;;;;5037378;28;20033;-87
2023/07/14 08:09:37;;;;;;;2.72;1.90;;;21.40;92.00;;;;;;5037713;28;20159;-88
2023/07/14 08:12:03;;;;;;;3.55;2.47;;;21.50;92.10;;;;;;5037233;28;20415;-86
2023/07/14 08:14:29;;;;;;;3.65;2.47;;;21.60;92.10;;;;;;5037487;28;20060;-86
2023/07/14 08:16:55;;;;;;;5.18;2.55;;;21.60;92.00;;;;;;5055199;28;20025;-86
2023/07/14 08:19:22;;;;;;;4.57;2.35;;;21.70;91.90;;;;;;5036926;28;20469;-86
2023/07/14 08:21:48;;;;;;;5.82;2.35;;;21.70;91.90;;;;;;5021073;28;20385;-86
2023/07/14 08:24:13;;;;;;;2.30;2.10;;;21.80;91.80;;;;;;5020555;28;20025;-86
2023/07/14 08:26:39;;;;;;;4.18;2.75;;;21.80;91.80;;;;;;5054779;28;20029;-86
2023/07/14 08:29:05;;;;;;;2.72;2.00;;;21.80;91.80;;;;;;5054981;28;20436;-86
2023/07/14 08:31:31;;;;;;;2.78;2.05;;;21.90;91.70;;;;;;5020237;28;20053;-87
2023/07/14 08:33:57;;;;;;;3.22;2.10;;;21.90;91.60;;;;;;5036563;28;20036;-85
2023/07/14 08:36:24;;;;;;;3.28;2.13;;;21.90;91.60;;;;;;5020248;28;20025;-85
2023/07/14 08:38:54;;;;;;;3.00;2.08;;;22.00;91.50;;;;;;5036671;28;20120;-86
2023/07/14 08:41:38;;;;;;;3.85;2.22;;;22.00;91.40;;;;;;5037018;28;20447;-86
2023/07/14 08:44:17;;;;;;;4.63;2.30;;;22.00;91.20;;;;;;5053548;28;20024;-85
2023/07/14 08:46:53;;;;;;;2.95;2.05;;;22.00;91.20;;;;;;5054289;28;20460;-87
2023/07/14 08:49:24;;;;;;;3.78;2.30;;;22.10;91.00;;;;;;5036605;28;20467;-86
2023/07/14 08:51:59;;;;;;;3.90;1.73;;;22.10;90.90;;;;;;5036650;28;20030;-86
2023/07/14 08:54:38;;;;;;;2.25;1.83;;;22.10;90.80;;;;;;5054265;28;20102;-85
2023/07/14 08:57:07;;;;;;;2.92;1.58;;;22.10;90.60;;;;;;5036348;28;20426;-87
2023/07/14 08:59:39;;;;;;;2.85;1.67;;;22.10;90.40;;;;;;5020147;28;20056;-86
2023/07/14 09:02:23;;;;;;;3.90;1.88;;;22.10;90.30;;;;;;5019994;28;20548;-87
2023/07/14 09:05:04;;;;;;;2.22;1.55;;;22.10;89.90;;;;;;5037104;28;20083;-87
2023/07/14 09:07:32;;;;;;;2.60;1.83;;;22.10;89.80;;;;;;5054539;28;20436;-86
2023/07/14 09:09:58;;;;;;;4.10;1.85;;;22.10;89.90;;;;;;5055638;28;20040;-87
2023/07/14 09:12:37;;;;;;;2.83;1.85;;;22.10;90.00;;;;;;5036738;28;20036;-87
2023/07/14 09:15:29;;;;;;;3.17;2.00;;;22.20;90.00;;;;;;5037421;28;20024;-89
2023/07/14 09:18:23;;;;;;;3.08;2.08;;;22.30;90.10;;;;;;5038285;28;20063;-87
2023/07/14 09:21:28;;;;;;;3.60;2.08;;;22.40;90.10;;;;;;5055341;28;20057;-87
2023/07/14 09:24:15;;;;;;;5.18;2.20;;;22.50;90.10;;;;;;5056051;28;20025;-86
2023/07/14 09:26:45;;;;;;;2.92;1.98;;;22.50;89.60;;;;;;5060896;28;20013;-86
2023/07/14 09:29:19;;;;;;;2.95;2.03;;;22.50;89.70;;;;;;5077491;28;20021;-87
2023/07/14 09:31:54;;;;;;;3.75;2.15;;;22.60;89.60;;;;;;5060543;28;20045;-86
2023/07/14 09:34:43;;;;;;;2.78;1.92;;;22.60;89.00;;;;;;5074920;28;20389;-86
2023/07/14 09:37:18;;;;;;;2.45;1.90;;;22.60;88.90;;;;;;5037118;28;20476;-87
2023/07/14 09:39:46;;;;;;;2.08;1.60;;;22.60;89.00;;;;;;5053643;28;20099;-87
2023/07/14 09:42:18;;;;;;;3.20;1.88;;;22.60;89.10;;;;;;5035997;28;20029;-88
2023/07/14 09:44:44;;;;;;;2.88;1.80;;;22.70;89.30;;;;;;5035790;28;20388;-87
2023/07/14 09:47:10;;;;;;;3.40;1.75;;;22.70;89.30;;;;;;5053699;28;20033;-86
2023/07/14 09:49:46;;;;;;;3.30;1.85;;;22.80;89.30;;;;;;5035919;28;20519;-87
2023/07/14 09:52:25;;;;;;;4.68;2.00;;;22.80;89.30;;;;;;5035599;28;20118;-88
2023/07/14 09:54:57;;;;;;;4.25;2.03;;;22.90;88.60;;;;;;5035495;28;20087;-87
2023/07/14 09:57:27;;;;;;;2.42;1.77;;;22.90;88.50;;;;;;5039896;28;20125;-86
2023/07/14 09:59:56;;;;;;;4.05;1.83;;;22.90;88.40;;;;;;5039775;28;20368;-87
2023/07/14 10:02:39;;;;;;;2.85;1.55;;;23.00;88.50;;;;;;5039553;28;20446;-87
2023/07/14 10:05:36;;;;;;;3.15;2.10;;;23.00;88.20;;;;;;5039858;28;20029;-87
2023/07/14 10:08:21;;;;;;;2.63;1.80;;;23.00;87.50;;;;;;5039511;28;20021;-86
2023/07/14 10:10:47;;;;;;;4.53;1.52;;;23.10;87.50;;;;;;5057385;28;20033;-87
2023/07/14 10:13:22;;;;;;;2.60;1.55;;;23.10;87.20;;;;;;5023020;28;20031;-87
2023/07/14 10:16:03;;;;;;;3.30;1.67;;;23.10;87.20;;;;;;5039535;28;20472;-86
2023/07/14 10:18:30;;;;;;;2.83;1.65;;;23.20;87.50;;;;;;5057181;28;20110;-89
2023/07/14 10:21:02;;;;;;;1.80;1.55;;;23.30;87.50;;;;;;5039123;28;20016;-87
2023/07/14 10:23:28;;;;;;;2.28;1.70;;;23.30;87.10;;;;;;5057213;28;20411;-86
2023/07/14 10:25:54;;;;;;;2.90;1.75;;;23.40;87.00;;;;;;5057097;28;20096;-88
2023/07/14 10:28:27;;;;;;;2.90;1.90;;;23.40;86.60;;;;;;5039327;28;20091;-86
2023/07/14 10:31:01;;;;;;;2.83;1.55;;;23.40;86.30;;;;;;5057135;28;20092;-87
2023/07/14 10:33:56;;;;;;;2.90;1.63;;;23.40;86.30;;;;;;5039232;28;20060;-89
2023/07/14 10:36:34;;;;;;;2.30;1.70;;;23.40;86.40;;;;;;5030581;28;20033;-87
2023/07/14 10:39:39;;;;;;;2.50;1.80;;;23.50;86.20;;;;;;5039074;28;20017;-87
2023/07/14 10:42:11;;;;;;;3.03;1.67;;;23.50;85.80;;;;;;5055932;28;20143;-87
2023/07/14 10:44:41;;;;;;;2.88;1.85;;;23.70;85.90;;;;;;5038053;28;20032;-87
2023/07/14 10:47:41;;;;;;;3.80;1.80;;;23.70;85.80;;;;;;5056795;28;20029;-86
2023/07/14 10:50:13;;;;;;;2.33;1.67;;;23.80;85.40;;;;;;5056106;28;20025;-87
2023/07/14 10:52:43;;;;;;;4.18;2.00;;;23.80;85.30;;;;;;5056649;28;20496;-87
2023/07/14 10:55:27;;;;;;;2.17;1.48;;;23.90;84.90;;;;;;5056733;28;20443;-87
2023/07/14 10:58:05;;;;;;;2.17;1.77;;;23.90;84.90;;;;;;5057229;28;20569;-87
2023/07/14 11:00:51;;;;;;;3.55;1.38;;;23.90;84.60;;;;;;5041635;28;20013;-88
2023/07/14 11:03:40;;;;;;;1.60;1.45;;;23.90;84.40;;;;;;5040364;28;20100;-89
2023/07/14 11:06:22;;;;;;;2.92;1.52;;;23.90;84.60;;;;;;5040547;28;20017;-88
2023/07/14 11:08:53;;;;;;;1.90;1.60;;;23.90;83.90;;;;;;5039329;28;20086;-90
2023/07/14 11:11:37;;;;;;;2.42;1.63;;;23.90;83.60;;;;;;5039407;28;20028;-90
2023/07/14 11:14:21;;;;;;;1.85;1.55;;;23.90;83.60;;;;;;5039371;28;20464;-90
2023/07/14 11:16:55;;;;;;;3.08;1.77;;;23.90;83.90;;;;;;5038992;28;20025;-86
2023/07/14 11:20:08;;;;;;;3.28;1.83;;;23.90;84.00;;;;;;5038850;28;20119;-87
2023/07/14 11:22:53;;;;;;;2.47;1.60;;;23.90;84.10;;;;;;5025635;28;20029;-87
2023/07/14 11:25:22;;;;;;;3.60;1.90;;;24.00;84.10;;;;;;5053263;28;20025;-87
2023/07/14 11:28:14;;;;;;;2.78;1.83;;;24.00;83.70;;;;;;5080261;28;20063;-87
2023/07/14 11:30:44;;;;;;;2.38;1.70;;;24.00;84.10;;;;;;5079847;28;20040;-85
2023/07/14 11:33:27;;;;;;;2.35;1.77;;;24.00;84.20;;;;;;5079773;28;20097;-86
2023/07/14 11:36:01;;;;;;;2.30;1.92;;;24.00;84.00;;;;;;5062452;28;20048;-86
2023/07/14 11:38:41;;;;;;;2.30;1.60;;;24.10;84.20;;;;;;5064230;28;20358;-87
2023/07/14 11:41:07;;;;;;;3.45;1.83;;;24.10;84.20;;;;;;5038593;28;20039;-87
2023/07/14 11:43:33;;;;;;;2.53;1.40;;;24.10;84.30;;;;;;5038073;28;20059;-87
2023/07/14 11:46:13;;;;;;;2.78;1.95;;;24.10;84.20;;;;;;5038000;28;20040;-87
2023/07/14 11:48:54;;;;;;;3.60;1.88;;;24.10;84.10;;;;;;5037817;28;20520;-86
2023/07/14 11:51:21;;;;;;;;;;;24.20;84.10;;;;;;5056344;28;20103;-87
2023/07/14 11:54:06;;;;;;;3.55;1.60;;;24.20;84.20;;;;;;5038248;28;20333;-87
2023/07/14 11:56:40;;;;;;;3.15;1.60;;;24.20;84.30;;;;;;5037573;28;20055;-86
2023/07/14 11:59:12;;;;;;;4.65;2.08;;;24.30;84.30;;;;;;5037577;28;20018;-87
2023/07/14 12:01:50;;;;;;;3.55;1.73;;;24.30;84.10;;;;;;5038528;28;20021;-87
2023/07/14 12:04:36;;;;;;;3.45;1.70;;;24.30;84.10;;;;;;5037774;28;20102;-87
2023/07/14 12:07:22;;;;;;;4.40;1.85;;;24.30;84.00;;;;;;5054410;28;20055;-86
2023/07/14 12:10:15;;;;;;;5.15;1.90;;;24.30;83.40;;;;;;5055085;28;20025;-87
2023/07/14 12:13:01;;;;;;;3.53;1.98;;;24.20;83.70;;;;;;5038502;28;20427;-86
2023/07/14 12:15:48;;;;;;;2.65;1.67;;;24.20;83.80;;;;;;5036686;28;20021;-86
2023/07/14 12:18:34;;;;;;;4.05;2.13;;;24.20;83.90;;;;;;5036862;28;20025;-87
2023/07/14 12:21:41;;;;;;;2.47;1.73;;;24.20;84.00;;;;;;5054547;28;20052;-87
2023/07/14 12:24:18;;;;;;;2.13;1.67;;;24.30;84.30;;;;;;5024665;28;20044;-87
2023/07/14 12:26:58;;;;;;;2.17;1.65;;;24.40;83.80;;;;;;5037129;28;20064;-87
2023/07/14 12:29:24;;;;;;;4.00;1.92;;;24.40;83.50;;;;;;5037211;28;20017;-88
2023/07/14 12:31:53;;;;;;;3.67;1.77;;;24.50;83.60;;;;;;5054346;28;20128;-87
2023/07/14 12:34:23;;;;;;;3.97;2.28;;;24.50;83.70;;;;;;5036436;28;20025;-87
2023/07/14 12:36:52;;;;;;;2.92;1.55;;;24.60;83.90;;;;;;5054173;28;20498;-87
2023/07/14 12:39:18;;;;;;;2.40;1.50;;;24.60;83.60;;;;;;5053513;28;20037;-87
2023/07/14 12:41:54;;;;;;;2.10;1.63;;;24.70;83.40;;;;;;5036498;28;20029;-87
2023/07/14 12:44:35;;;;;;;3.33;1.77;;;24.70;83.20;;;;;;5036565;28;20456;-87
2023/07/14 12:47:01;;;;;;;2.65;1.48;;;24.80;83.20;;;;;;5054566;28;20116;-86
2023/07/14 12:49:38;;;;;;;2.80;1.98;;;24.80;83.10;;;;;;5054398;28;20063;-87
2023/07/14 12:52:12;;;;;;;2.53;1.52;;;24.80;83.00;;;;;;5036499;28;20430;-86
2023/07/14 12:54:45;;;;;;;5.00;1.73;;;24.90;83.10;;;;;;5035727;28;20028;-85
2023/07/14 12:57:16;;;;;;;3.15;1.58;;;24.90;82.80;;;;;;5036251;28;20042;-88
2023/07/14 12:59:51;;;;;;;2.60;1.52;;;24.90;82.80;;;;;;5054235;28;20021;-87
2023/07/14 13:02:17;;;;;;;3.10;2.03;;;25.00;82.80;;;;;;5036647;28;20043;-86
2023/07/14 13:04:44;;;;;;;3.67;1.85;;;25.00;82.80;;;;;;5037085;28;20404;-86
2023/07/14 13:07:18;;;;;;;3.63;1.67;;;25.00;82.80;;;;;;5036202;28;20044;-86
2023/07/14 13:09:44;;;;;;;2.83;1.58;;;25.10;82.60;;;;;;5037674;28;20614;-87